Aviation Digital Data Service (ADDS)

Output produced by TAFs form (1709 UTC 26 June 2016)
found at http://www.aviationweather.gov/adds/tafs/
 
KAPA 261653Z 00000KT 10SM FEW085 27/08 A3025 RMK AO2 SLP170 T02670078
KAPA 261352Z 2614/2712 19009KT P6SM FEW250 
     FM261700 16006KT P6SM FEW130 SCT250 
     FM261900 06007KT P6SM FEW090 SCT130 
     FM262300 10009KT P6SM SCT080 BKN120 
     FM270200 15010KT P6SM FEW090 SCT130 
     FM270500 18008KT P6SM FEW150